sensor_id;sensor_type;location;lat;lon;timestamp;P1;durP1;ratioP1;P2;durP2;ratioP2
80340;SDS011;69656;44.498;0.166;2023-12-07T00:04:58;526.27;;;45.47;;
80340;SDS011;69656;44.498;0.166;2023-12-07T00:10:31;288.00;;;31.10;;
80340;SDS011;69656;44.498;0.166;2023-12-07T00:16:04;330.87;;;31.33;;
80340;SDS011;69656;44.498;0.166;2023-12-07T00:21:36;366.87;;;33.23;;
80340;SDS011;69656;44.498;0.166;2023-12-07T00:27:09;253.70;;;28.43;;
80340;SDS011;69656;44.498;0.166;2023-12-07T00:32:42;204.93;;;23.17;;
80340;SDS011;69656;44.498;0.166;2023-12-07T00:38:14;183.07;;;21.37;;
80340;SDS011;69656;44.498;0.166;2023-12-07T00:43:47;97.10;;;16.03;;
80340;SDS011;69656;44.498;0.166;2023-12-07T00:49:20;96.73;;;14.17;;
80340;SDS011;69656;44.498;0.166;2023-12-07T00:54:52;311.70;;;27.70;;
80340;SDS011;69656;44.498;0.166;2023-12-07T01:00:25;53.57;;;10.77;;
80340;SDS011;69656;44.498;0.166;2023-12-07T01:05:58;68.50;;;13.93;;
80340;SDS011;69656;44.498;0.166;2023-12-07T01:11:31;87.30;;;15.40;;
80340;SDS011;69656;44.498;0.166;2023-12-07T01:22:36;41.63;;;10.53;;
80340;SDS011;69656;44.498;0.166;2023-12-07T01:28:09;48.60;;;8.70;;
80340;SDS011;69656;44.498;0.166;2023-12-07T01:33:42;42.60;;;10.33;;
80340;SDS011;69656;44.498;0.166;2023-12-07T01:39:14;36.20;;;10.77;;
80340;SDS011;69656;44.498;0.166;2023-12-07T01:44:46;39.57;;;11.20;;
80340;SDS011;69656;44.498;0.166;2023-12-07T01:50:18;32.07;;;9.83;;
80340;SDS011;69656;44.498;0.166;2023-12-07T01:55:50;64.37;;;12.67;;
80340;SDS011;69656;44.498;0.166;2023-12-07T02:01:23;24.23;;;8.37;;
80340;SDS011;69656;44.498;0.166;2023-12-07T02:06:57;15.40;;;7.23;;
80340;SDS011;69656;44.498;0.166;2023-12-07T02:12:30;15.43;;;6.07;;
80340;SDS011;69656;44.498;0.166;2023-12-07T02:18:06;22.00;;;8.30;;
80340;SDS011;69656;44.498;0.166;2023-12-07T02:23:38;9.40;;;3.87;;
80340;SDS011;69656;44.498;0.166;2023-12-07T02:29:10;19.40;;;8.80;;
80340;SDS011;69656;44.498;0.166;2023-12-07T02:34:43;22.43;;;9.13;;
80340;SDS011;69656;44.498;0.166;2023-12-07T02:40:16;18.87;;;9.20;;
80340;SDS011;69656;44.498;0.166;2023-12-07T02:45:48;12.03;;;6.60;;
80340;SDS011;69656;44.498;0.166;2023-12-07T02:51:22;13.67;;;6.40;;
80340;SDS011;69656;44.498;0.166;2023-12-07T02:56:54;10.80;;;4.63;;
80340;SDS011;69656;44.498;0.166;2023-12-07T03:02:27;16.57;;;7.77;;
80340;SDS011;69656;44.498;0.166;2023-12-07T03:07:59;21.87;;;9.97;;
80340;SDS011;69656;44.498;0.166;2023-12-07T03:13:32;31.10;;;10.70;;
80340;SDS011;69656;44.498;0.166;2023-12-07T03:19:05;25.67;;;9.73;;
80340;SDS011;69656;44.498;0.166;2023-12-07T03:24:39;23.10;;;9.17;;
80340;SDS011;69656;44.498;0.166;2023-12-07T03:30:12;25.03;;;9.13;;
80340;SDS011;69656;44.498;0.166;2023-12-07T03:35:43;20.07;;;8.90;;
80340;SDS011;69656;44.498;0.166;2023-12-07T03:41:15;23.17;;;9.60;;
80340;SDS011;69656;44.498;0.166;2023-12-07T03:46:49;21.60;;;9.20;;
80340;SDS011;69656;44.498;0.166;2023-12-07T03:52:22;20.10;;;9.40;;
80340;SDS011;69656;44.498;0.166;2023-12-07T03:57:54;17.40;;;7.50;;
80340;SDS011;69656;44.498;0.166;2023-12-07T04:03:28;25.20;;;9.10;;
80340;SDS011;69656;44.498;0.166;2023-12-07T04:09:01;20.50;;;9.17;;
80340;SDS011;69656;44.498;0.166;2023-12-07T04:14:33;28.50;;;8.90;;
80340;SDS011;69656;44.498;0.166;2023-12-07T04:20:06;25.00;;;10.67;;
80340;SDS011;69656;44.498;0.166;2023-12-07T04:25:39;20.93;;;9.53;;
80340;SDS011;69656;44.498;0.166;2023-12-07T04:31:11;21.07;;;9.77;;
80340;SDS011;69656;44.498;0.166;2023-12-07T04:36:44;19.60;;;8.97;;
80340;SDS011;69656;44.498;0.166;2023-12-07T04:42:17;21.53;;;9.07;;
80340;SDS011;69656;44.498;0.166;2023-12-07T04:47:50;22.93;;;9.53;;
80340;SDS011;69656;44.498;0.166;2023-12-07T04:53:23;19.97;;;9.47;;
80340;SDS011;69656;44.498;0.166;2023-12-07T04:58:56;18.90;;;8.57;;
80340;SDS011;69656;44.498;0.166;2023-12-07T05:04:29;25.03;;;9.73;;
80340;SDS011;69656;44.498;0.166;2023-12-07T05:10:01;25.60;;;10.50;;
80340;SDS011;69656;44.498;0.166;2023-12-07T05:15:35;26.27;;;9.67;;
80340;SDS011;69656;44.498;0.166;2023-12-07T05:21:08;18.87;;;8.27;;
80340;SDS011;69656;44.498;0.166;2023-12-07T05:26:42;21.97;;;8.53;;
80340;SDS011;69656;44.498;0.166;2023-12-07T05:32:15;23.43;;;9.33;;
80340;SDS011;69656;44.498;0.166;2023-12-07T05:37:48;18.07;;;9.07;;
80340;SDS011;69656;44.498;0.166;2023-12-07T05:43:21;22.43;;;9.73;;
80340;SDS011;69656;44.498;0.166;2023-12-07T05:48:54;21.57;;;8.87;;
80340;SDS011;69656;44.498;0.166;2023-12-07T05:54:27;20.07;;;9.47;;
80340;SDS011;69656;44.498;0.166;2023-12-07T05:59:59;19.30;;;9.20;;
80340;SDS011;69656;44.498;0.166;2023-12-07T06:05:32;19.93;;;8.77;;
80340;SDS011;69656;44.498;0.166;2023-12-07T06:11:04;14.03;;;8.30;;
80340;SDS011;69656;44.498;0.166;2023-12-07T06:16:36;18.10;;;9.13;;
80340;SDS011;69656;44.498;0.166;2023-12-07T06:22:09;20.33;;;9.13;;
80340;SDS011;69656;44.498;0.166;2023-12-07T06:27:42;16.70;;;7.93;;
80340;SDS011;69656;44.498;0.166;2023-12-07T06:33:14;20.00;;;8.93;;
80340;SDS011;69656;44.498;0.166;2023-12-07T06:38:48;16.10;;;7.03;;
80340;SDS011;69656;44.498;0.166;2023-12-07T06:44:21;16.60;;;8.13;;
80340;SDS011;69656;44.498;0.166;2023-12-07T06:49:53;16.87;;;8.33;;
80340;SDS011;69656;44.498;0.166;2023-12-07T06:55:25;17.40;;;7.67;;
80340;SDS011;69656;44.498;0.166;2023-12-07T07:00:58;12.80;;;7.03;;
80340;SDS011;69656;44.498;0.166;2023-12-07T07:06:30;10.00;;;5.40;;
80340;SDS011;69656;44.498;0.166;2023-12-07T07:12:03;13.53;;;7.03;;
80340;SDS011;69656;44.498;0.166;2023-12-07T07:17:37;8.43;;;4.97;;
80340;SDS011;69656;44.498;0.166;2023-12-07T07:23:10;14.17;;;6.47;;
80340;SDS011;69656;44.498;0.166;2023-12-07T07:28:42;11.47;;;6.10;;
80340;SDS011;69656;44.498;0.166;2023-12-07T07:34:15;10.17;;;6.07;;
80340;SDS011;69656;44.498;0.166;2023-12-07T07:39:48;10.50;;;5.60;;
80340;SDS011;69656;44.498;0.166;2023-12-07T07:45:21;14.37;;;7.20;;
80340;SDS011;69656;44.498;0.166;2023-12-07T07:50:54;12.23;;;7.03;;
80340;SDS011;69656;44.498;0.166;2023-12-07T07:56:27;8.27;;;5.77;;
80340;SDS011;69656;44.498;0.166;2023-12-07T08:01:59;11.13;;;4.50;;
80340;SDS011;69656;44.498;0.166;2023-12-07T08:07:32;10.73;;;5.77;;
80340;SDS011;69656;44.498;0.166;2023-12-07T08:13:04;8.90;;;5.80;;
80340;SDS011;69656;44.498;0.166;2023-12-07T08:18:37;15.13;;;6.87;;
80340;SDS011;69656;44.498;0.166;2023-12-07T08:24:10;7.70;;;4.57;;
80340;SDS011;69656;44.498;0.166;2023-12-07T08:29:43;7.17;;;4.40;;
80340;SDS011;69656;44.498;0.166;2023-12-07T08:35:16;7.57;;;4.50;;
80340;SDS011;69656;44.498;0.166;2023-12-07T08:40:50;10.63;;;4.43;;
80340;SDS011;69656;44.498;0.166;2023-12-07T08:46:22;9.67;;;4.70;;
80340;SDS011;69656;44.498;0.166;2023-12-07T08:51:56;7.13;;;3.70;;
80340;SDS011;69656;44.498;0.166;2023-12-07T08:57:29;6.80;;;5.07;;
80340;SDS011;69656;44.498;0.166;2023-12-07T09:03:01;5.47;;;3.37;;
80340;SDS011;69656;44.498;0.166;2023-12-07T09:08:34;8.17;;;4.53;;
80340;SDS011;69656;44.498;0.166;2023-12-07T09:14:07;7.57;;;4.30;;
80340;SDS011;69656;44.498;0.166;2023-12-07T09:19:38;10.40;;;6.37;;
80340;SDS011;69656;44.498;0.166;2023-12-07T09:25:11;6.83;;;4.57;;
80340;SDS011;69656;44.498;0.166;2023-12-07T09:30:44;10.67;;;7.30;;
80340;SDS011;69656;44.498;0.166;2023-12-07T09:36:18;13.70;;;7.87;;
80340;SDS011;69656;44.498;0.166;2023-12-07T09:41:50;16.53;;;8.03;;
80340;SDS011;69656;44.498;0.166;2023-12-07T09:47:22;13.93;;;7.93;;
80340;SDS011;69656;44.498;0.166;2023-12-07T09:52:56;11.30;;;7.03;;
80340;SDS011;69656;44.498;0.166;2023-12-07T09:58:28;13.20;;;6.30;;
80340;SDS011;69656;44.498;0.166;2023-12-07T10:09:38;8.80;;;6.17;;
80340;SDS011;69656;44.498;0.166;2023-12-07T10:15:11;12.13;;;6.70;;
80340;SDS011;69656;44.498;0.166;2023-12-07T10:20:40;10.50;;;6.30;;
80340;SDS011;69656;44.498;0.166;2023-12-07T10:26:11;10.93;;;5.87;;
80340;SDS011;69656;44.498;0.166;2023-12-07T10:31:44;8.63;;;5.50;;
80340;SDS011;69656;44.498;0.166;2023-12-07T10:37:17;7.67;;;5.17;;
80340;SDS011;69656;44.498;0.166;2023-12-07T10:42:51;7.93;;;5.30;;
80340;SDS011;69656;44.498;0.166;2023-12-07T10:48:23;10.87;;;5.77;;
80340;SDS011;69656;44.498;0.166;2023-12-07T10:59:29;9.53;;;5.40;;
80340;SDS011;69656;44.498;0.166;2023-12-07T11:05:03;8.03;;;5.60;;
80340;SDS011;69656;44.498;0.166;2023-12-07T11:10:36;7.83;;;4.90;;
80340;SDS011;69656;44.498;0.166;2023-12-07T11:16:07;7.43;;;4.90;;
80340;SDS011;69656;44.498;0.166;2023-12-07T11:21:40;9.53;;;4.07;;
80340;SDS011;69656;44.498;0.166;2023-12-07T11:27:13;6.63;;;4.20;;
80340;SDS011;69656;44.498;0.166;2023-12-07T11:32:46;6.07;;;3.70;;
80340;SDS011;69656;44.498;0.166;2023-12-07T11:38:18;6.60;;;4.23;;
80340;SDS011;69656;44.498;0.166;2023-12-07T11:43:51;5.77;;;3.30;;
80340;SDS011;69656;44.498;0.166;2023-12-07T11:49:24;3.70;;;3.30;;
80340;SDS011;69656;44.498;0.166;2023-12-07T11:54:58;6.07;;;3.60;;
80340;SDS011;69656;44.498;0.166;2023-12-07T12:00:31;5.40;;;3.83;;
80340;SDS011;69656;44.498;0.166;2023-12-07T12:06:05;5.40;;;3.20;;
80340;SDS011;69656;44.498;0.166;2023-12-07T12:11:37;6.33;;;4.00;;
80340;SDS011;69656;44.498;0.166;2023-12-07T12:17:14;3.27;;;2.97;;
80340;SDS011;69656;44.498;0.166;2023-12-07T12:22:43;12.03;;;5.03;;
80340;SDS011;69656;44.498;0.166;2023-12-07T12:28:15;4.23;;;3.13;;
80340;SDS011;69656;44.498;0.166;2023-12-07T12:33:48;4.57;;;2.77;;
80340;SDS011;69656;44.498;0.166;2023-12-07T12:39:23;4.27;;;3.13;;
80340;SDS011;69656;44.498;0.166;2023-12-07T12:44:52;8.27;;;3.07;;
80340;SDS011;69656;44.498;0.166;2023-12-07T12:50:34;4.23;;;3.13;;
80340;SDS011;69656;44.498;0.166;2023-12-07T12:55:59;8.90;;;3.70;;
80340;SDS011;69656;44.498;0.166;2023-12-07T13:01:32;6.97;;;3.63;;
80340;SDS011;69656;44.498;0.166;2023-12-07T13:07:05;6.23;;;3.87;;
80340;SDS011;69656;44.498;0.166;2023-12-07T13:12:37;6.53;;;3.23;;
80340;SDS011;69656;44.498;0.166;2023-12-07T13:18:09;6.70;;;3.50;;
80340;SDS011;69656;44.498;0.166;2023-12-07T13:23:42;6.83;;;3.60;;
80340;SDS011;69656;44.498;0.166;2023-12-07T13:29:16;6.87;;;4.07;;
80340;SDS011;69656;44.498;0.166;2023-12-07T13:34:48;5.63;;;4.43;;
80340;SDS011;69656;44.498;0.166;2023-12-07T13:40:21;7.73;;;4.30;;
80340;SDS011;69656;44.498;0.166;2023-12-07T13:45:53;3.63;;;2.00;;
80340;SDS011;69656;44.498;0.166;2023-12-07T13:51:27;5.90;;;4.13;;
80340;SDS011;69656;44.498;0.166;2023-12-07T13:56:59;6.13;;;4.07;;
80340;SDS011;69656;44.498;0.166;2023-12-07T14:02:32;6.03;;;3.40;;
80340;SDS011;69656;44.498;0.166;2023-12-07T14:08:05;6.43;;;3.03;;
80340;SDS011;69656;44.498;0.166;2023-12-07T14:13:37;5.97;;;4.00;;
80340;SDS011;69656;44.498;0.166;2023-12-07T14:19:10;7.33;;;3.20;;
80340;SDS011;69656;44.498;0.166;2023-12-07T14:24:43;6.87;;;4.03;;
80340;SDS011;69656;44.498;0.166;2023-12-07T14:30:15;4.63;;;3.40;;
80340;SDS011;69656;44.498;0.166;2023-12-07T14:35:47;7.47;;;4.00;;
80340;SDS011;69656;44.498;0.166;2023-12-07T14:41:19;4.57;;;3.13;;
80340;SDS011;69656;44.498;0.166;2023-12-07T14:46:52;8.43;;;4.67;;
80340;SDS011;69656;44.498;0.166;2023-12-07T14:52:24;4.57;;;3.27;;
80340;SDS011;69656;44.498;0.166;2023-12-07T14:57:57;9.40;;;4.87;;
80340;SDS011;69656;44.498;0.166;2023-12-07T15:03:30;10.60;;;4.60;;
80340;SDS011;69656;44.498;0.166;2023-12-07T15:09:02;7.80;;;4.70;;
80340;SDS011;69656;44.498;0.166;2023-12-07T15:14:35;5.20;;;3.97;;
80340;SDS011;69656;44.498;0.166;2023-12-07T15:20:08;7.47;;;4.67;;
80340;SDS011;69656;44.498;0.166;2023-12-07T15:25:41;6.90;;;4.57;;
80340;SDS011;69656;44.498;0.166;2023-12-07T15:31:14;7.40;;;4.00;;
80340;SDS011;69656;44.498;0.166;2023-12-07T15:36:47;6.13;;;3.07;;
80340;SDS011;69656;44.498;0.166;2023-12-07T15:42:19;8.10;;;4.60;;
80340;SDS011;69656;44.498;0.166;2023-12-07T15:47:51;9.60;;;6.13;;
80340;SDS011;69656;44.498;0.166;2023-12-07T15:58:56;13.57;;;6.43;;
80340;SDS011;69656;44.498;0.166;2023-12-07T16:04:29;11.33;;;6.50;;
80340;SDS011;69656;44.498;0.166;2023-12-07T16:10:01;12.53;;;4.50;;
80340;SDS011;69656;44.498;0.166;2023-12-07T16:15:32;10.03;;;5.07;;
80340;SDS011;69656;44.498;0.166;2023-12-07T16:21:06;12.27;;;5.83;;
80340;SDS011;69656;44.498;0.166;2023-12-07T16:26:38;9.97;;;5.80;;
80340;SDS011;69656;44.498;0.166;2023-12-07T16:32:10;10.17;;;6.60;;
80340;SDS011;69656;44.498;0.166;2023-12-07T16:37:42;10.70;;;6.77;;
80340;SDS011;69656;44.498;0.166;2023-12-07T16:43:15;11.40;;;6.40;;
80340;SDS011;69656;44.498;0.166;2023-12-07T16:48:48;10.33;;;6.27;;
80340;SDS011;69656;44.498;0.166;2023-12-07T16:54:21;12.63;;;6.83;;
80340;SDS011;69656;44.498;0.166;2023-12-07T16:59:55;9.73;;;6.30;;
80340;SDS011;69656;44.498;0.166;2023-12-07T17:05:28;15.33;;;9.80;;
80340;SDS011;69656;44.498;0.166;2023-12-07T17:11:01;15.80;;;8.50;;
80340;SDS011;69656;44.498;0.166;2023-12-07T17:16:34;11.83;;;6.07;;
80340;SDS011;69656;44.498;0.166;2023-12-07T17:22:06;15.67;;;9.37;;
80340;SDS011;69656;44.498;0.166;2023-12-07T17:27:39;14.50;;;9.20;;
80340;SDS011;69656;44.498;0.166;2023-12-07T17:33:13;11.63;;;7.47;;
80340;SDS011;69656;44.498;0.166;2023-12-07T17:38:46;15.40;;;9.47;;
80340;SDS011;69656;44.498;0.166;2023-12-07T17:44:18;21.20;;;10.67;;
80340;SDS011;69656;44.498;0.166;2023-12-07T17:49:51;22.23;;;10.60;;
80340;SDS011;69656;44.498;0.166;2023-12-07T17:55:24;18.43;;;10.40;;
80340;SDS011;69656;44.498;0.166;2023-12-07T18:00:57;18.00;;;10.03;;
80340;SDS011;69656;44.498;0.166;2023-12-07T18:06:30;21.27;;;11.53;;
80340;SDS011;69656;44.498;0.166;2023-12-07T18:12:03;29.10;;;13.93;;
80340;SDS011;69656;44.498;0.166;2023-12-07T18:17:36;42.20;;;17.23;;
80340;SDS011;69656;44.498;0.166;2023-12-07T18:23:10;34.70;;;15.77;;
80340;SDS011;69656;44.498;0.166;2023-12-07T18:28:43;29.87;;;12.67;;
80340;SDS011;69656;44.498;0.166;2023-12-07T18:34:16;28.40;;;12.50;;
80340;SDS011;69656;44.498;0.166;2023-12-07T18:39:48;35.63;;;14.97;;
80340;SDS011;69656;44.498;0.166;2023-12-07T18:45:21;33.33;;;14.40;;
80340;SDS011;69656;44.498;0.166;2023-12-07T18:50:54;55.67;;;18.90;;
80340;SDS011;69656;44.498;0.166;2023-12-07T18:56:27;40.20;;;16.60;;
80340;SDS011;69656;44.498;0.166;2023-12-07T19:02:00;50.30;;;19.87;;
80340;SDS011;69656;44.498;0.166;2023-12-07T19:07:32;69.27;;;25.67;;
80340;SDS011;69656;44.498;0.166;2023-12-07T19:13:05;108.43;;;27.00;;
80340;SDS011;69656;44.498;0.166;2023-12-07T19:18:38;60.53;;;19.97;;
80340;SDS011;69656;44.498;0.166;2023-12-07T19:24:12;101.77;;;23.77;;
80340;SDS011;69656;44.498;0.166;2023-12-07T19:29:45;94.57;;;21.63;;
80340;SDS011;69656;44.498;0.166;2023-12-07T19:35:18;47.73;;;15.90;;
80340;SDS011;69656;44.498;0.166;2023-12-07T19:40:51;61.37;;;18.63;;
80340;SDS011;69656;44.498;0.166;2023-12-07T19:46:24;72.40;;;19.50;;
80340;SDS011;69656;44.498;0.166;2023-12-07T19:51:57;37.87;;;15.13;;
80340;SDS011;69656;44.498;0.166;2023-12-07T19:57:31;60.23;;;16.07;;
80340;SDS011;69656;44.498;0.166;2023-12-07T20:03:05;26.83;;;10.57;;
80340;SDS011;69656;44.498;0.166;2023-12-07T20:08:37;29.97;;;12.63;;
80340;SDS011;69656;44.498;0.166;2023-12-07T20:14:10;37.30;;;14.37;;
80340;SDS011;69656;44.498;0.166;2023-12-07T20:19:43;24.57;;;10.57;;
80340;SDS011;69656;44.498;0.166;2023-12-07T20:25:18;52.90;;;16.60;;
80340;SDS011;69656;44.498;0.166;2023-12-07T20:30:49;30.90;;;13.23;;
80340;SDS011;69656;44.498;0.166;2023-12-07T20:36:21;35.47;;;14.03;;
80340;SDS011;69656;44.498;0.166;2023-12-07T20:41:53;29.70;;;11.63;;
80340;SDS011;69656;44.498;0.166;2023-12-07T20:47:27;19.37;;;9.83;;
80340;SDS011;69656;44.498;0.166;2023-12-07T20:53:00;16.20;;;7.57;;
80340;SDS011;69656;44.498;0.166;2023-12-07T20:58:32;20.10;;;10.03;;
80340;SDS011;69656;44.498;0.166;2023-12-07T21:04:04;18.30;;;8.87;;
80340;SDS011;69656;44.498;0.166;2023-12-07T21:09:36;39.00;;;13.67;;
80340;SDS011;69656;44.498;0.166;2023-12-07T21:15:09;38.23;;;14.73;;
80340;SDS011;69656;44.498;0.166;2023-12-07T21:20:42;24.07;;;11.87;;
80340;SDS011;69656;44.498;0.166;2023-12-07T21:26:14;22.17;;;10.87;;
80340;SDS011;69656;44.498;0.166;2023-12-07T21:31:48;20.60;;;8.80;;
80340;SDS011;69656;44.498;0.166;2023-12-07T21:37:20;39.10;;;16.43;;
80340;SDS011;69656;44.498;0.166;2023-12-07T21:42:53;42.07;;;15.90;;
80340;SDS011;69656;44.498;0.166;2023-12-07T21:48:26;12.90;;;6.33;;
80340;SDS011;69656;44.498;0.166;2023-12-07T21:53:58;12.37;;;7.33;;
80340;SDS011;69656;44.498;0.166;2023-12-07T21:59:31;18.40;;;9.27;;
80340;SDS011;69656;44.498;0.166;2023-12-07T22:05:04;16.70;;;7.97;;
80340;SDS011;69656;44.498;0.166;2023-12-07T22:10:36;22.13;;;8.47;;
80340;SDS011;69656;44.498;0.166;2023-12-07T22:16:08;26.57;;;11.17;;
80340;SDS011;69656;44.498;0.166;2023-12-07T22:21:40;11.63;;;5.70;;
80340;SDS011;69656;44.498;0.166;2023-12-07T22:27:13;17.93;;;7.97;;
80340;SDS011;69656;44.498;0.166;2023-12-07T22:32:45;19.03;;;9.27;;
80340;SDS011;69656;44.498;0.166;2023-12-07T22:38:17;21.67;;;8.13;;
80340;SDS011;69656;44.498;0.166;2023-12-07T22:43:49;32.17;;;12.00;;
80340;SDS011;69656;44.498;0.166;2023-12-07T22:49:22;40.90;;;12.57;;
80340;SDS011;69656;44.498;0.166;2023-12-07T22:54:54;54.87;;;18.77;;
80340;SDS011;69656;44.498;0.166;2023-12-07T23:00:26;41.37;;;14.67;;
80340;SDS011;69656;44.498;0.166;2023-12-07T23:05:59;39.47;;;10.23;;
80340;SDS011;69656;44.498;0.166;2023-12-07T23:11:33;32.33;;;11.93;;
80340;SDS011;69656;44.498;0.166;2023-12-07T23:17:05;19.17;;;8.87;;
80340;SDS011;69656;44.498;0.166;2023-12-07T23:22:38;22.67;;;10.60;;
80340;SDS011;69656;44.498;0.166;2023-12-07T23:28:10;28.57;;;10.00;;
80340;SDS011;69656;44.498;0.166;2023-12-07T23:33:42;24.93;;;9.17;;
80340;SDS011;69656;44.498;0.166;2023-12-07T23:39:15;19.07;;;7.73;;
80340;SDS011;69656;44.498;0.166;2023-12-07T23:44:48;12.63;;;6.57;;
80340;SDS011;69656;44.498;0.166;2023-12-07T23:50:20;23.13;;;8.00;;
80340;SDS011;69656;44.498;0.166;2023-12-07T23:55:53;25.50;;;7.83;;
